Time;durP1;ratioP1;P1;durP2;ratioP2;P2;SDS_P1;SDS_P2;PMS_P1;PMS_P2;Temp;Humidity;BMP_temperature;BMP_pressure;BME280_temperature;BME280_humidity;BME280_pressure;Samples;Min_cycle;Max_cycle;Signal;HPM_P1;HPM_P2
2023/07/07 00:01:40;;;;;;;9.50;4.57;;;;;;;20.98;50.82;101745.69;4996045;28;99397;-68
2023/07/07 00:04:08;;;;;;;9.90;4.88;;;;;;;20.98;50.77;101747.50;4990627;28;98867;-69
2023/07/07 00:06:34;;;;;;;9.02;4.70;;;;;;;20.98;50.67;101742.13;4996953;28;96767;-69
2023/07/07 00:09:02;;;;;;;8.50;4.70;;;;;;;20.86;51.07;101738.41;4999710;28;97892;-69
2023/07/07 00:11:29;;;;;;;8.52;4.85;;;;;;;20.79;51.36;101737.06;4987575;28;98992;-69
2023/07/07 00:13:56;;;;;;;13.82;4.68;;;;;;;20.77;51.28;101741.66;4989990;28;99232;-68
2023/07/07 00:16:27;;;;;;;6.43;4.00;;;;;;;20.76;51.28;101737.25;4990822;28;96971;-69
2023/07/07 00:18:53;;;;;;;7.90;4.32;;;;;;;20.54;51.96;101739.53;4990247;28;98603;-69
2023/07/07 00:21:24;;;;;;;5.75;4.22;;;;;;;20.54;52.02;101737.72;4987796;28;97623;-69
2023/07/07 00:23:53;;;;;;;7.78;4.28;;;;;;;20.47;52.61;101732.81;4987863;28;98909;-69
2023/07/07 00:26:20;;;;;;;7.28;4.43;;;;;;;20.48;52.22;101738.06;4996195;28;96898;-69
2023/07/07 00:28:47;;;;;;;7.47;4.05;;;;;;;20.35;52.26;101736.25;4988758;28;96767;-69
2023/07/07 00:31:14;;;;;;;7.00;4.53;;;;;;;20.21;52.51;101743.28;4993870;28;99287;-69
2023/07/07 00:33:41;;;;;;;8.25;4.22;;;;;;;20.51;51.67;101735.22;4984069;28;101878;-69
2023/07/07 00:36:08;;;;;;;8.45;4.43;;;;;;;20.46;52.10;101733.78;4989547;28;99022;-69
2023/07/07 00:38:35;;;;;;;10.55;4.47;;;;;;;20.56;51.77;101740.28;4988269;28;97001;-69
2023/07/07 00:41:03;;;;;;;10.10;4.10;;;;;;;20.53;51.89;101735.13;4995573;28;101905;-69
2023/07/07 00:43:30;;;;;;;6.70;3.67;;;;;;;20.40;52.26;101744.88;4989446;28;99099;-69
2023/07/07 00:45:58;;;;;;;6.40;4.13;;;;;;;20.61;51.48;101736.38;4993248;28;97266;-72
2023/07/07 00:48:27;;;;;;;7.25;4.30;;;;;;;20.43;52.44;101736.63;4989158;28;96989;-69
2023/07/07 00:50:59;;;;;;;11.32;3.92;;;;;;;20.55;51.86;101736.75;4988250;28;98955;-69
2023/07/07 00:53:26;;;;;;;6.35;4.35;;;;;;;20.39;52.41;101740.47;4992921;28;98914;-69
2023/07/07 00:55:59;;;;;;;8.00;4.43;;;;;;;20.29;52.51;101749.03;4984418;28;97223;-70
2023/07/07 00:58:26;;;;;;;8.85;4.30;;;;;;;20.14;53.40;101754.47;4990841;28;98448;-69
2023/07/07 01:00:59;;;;;;;6.65;4.22;;;;;;;20.17;53.69;101751.59;4992535;28;99167;-69
2023/07/07 01:03:37;;;;;;;10.40;4.28;;;;;;;20.03;54.63;101765.81;4991856;28;100414;-69
2023/07/07 01:06:07;;;;;;;8.30;4.25;;;;;;;20.07;55.10;101767.38;4989041;28;97053;-69
2023/07/07 01:08:34;;;;;;;9.98;4.70;;;;;;;19.97;55.67;101763.50;4987648;28;97943;-69
2023/07/07 01:11:02;;;;;;;8.07;4.15;;;;;;;19.97;55.48;101768.88;4986439;28;99216;-69
2023/07/07 01:13:28;;;;;;;6.25;3.85;;;;;;;20.15;54.34;101764.25;4986984;28;99264;-69
2023/07/07 01:16:05;;;;;;;6.90;3.78;;;;;;;20.17;54.42;101768.56;4988738;28;96759;-69
2023/07/07 01:18:39;;;;;;;8.85;3.88;;;;;;;20.19;54.34;101760.44;4985409;28;97060;-69
2023/07/07 01:21:12;;;;;;;5.00;4.18;;;;;;;20.05;54.52;101758.56;4994212;28;99198;-69
2023/07/07 01:24:18;;;;;;;5.85;3.85;;;;;;;20.01;54.57;101762.38;4996396;28;100254;-69
2023/07/07 01:27:16;;;;;;;6.45;4.43;;;;;;;20.09;54.21;101765.47;4987507;28;96661;-68
2023/07/07 01:30:11;;;;;;;6.53;3.70;;;;;;;20.13;54.36;101764.34;4981582;28;96940;-69
2023/07/07 01:32:40;;;;;;;6.35;4.10;;;;;;;20.14;53.89;101767.88;4991685;28;99341;-69
2023/07/07 01:35:15;;;;;;;6.00;3.97;;;;;;;20.19;53.38;101763.97;4982657;28;98961;-70
2023/07/07 01:37:51;;;;;;;8.50;4.63;;;;;;;20.19;53.42;101766.66;4994223;28;97273;-69
2023/07/07 01:40:17;;;;;;;7.73;4.23;;;;;;;20.04;53.53;101764.00;4990548;28;96785;-68
2023/07/07 01:42:48;;;;;;;6.35;4.00;;;;;;;20.13;53.52;101768.84;4987509;28;99302;-68
2023/07/07 01:45:22;;;;;;;8.23;3.97;;;;;;;19.95;54.20;101760.06;4992919;28;98773;-69
2023/07/07 01:47:56;;;;;;;8.27;4.03;;;;;;;20.02;54.12;101764.09;4987918;28;97047;-69
2023/07/07 01:50:27;;;;;;;5.93;4.38;;;;;;;20.02;54.06;101763.25;4991644;28;97046;-69
2023/07/07 01:52:58;;;;;;;7.00;4.50;;;;;;;19.94;53.75;101762.84;4982384;28;101747;-69
2023/07/07 01:55:28;;;;;;;10.40;4.88;;;;;;;20.02;53.95;101756.03;4988955;28;98940;-69
2023/07/07 01:57:57;;;;;;;13.55;4.30;;;;;;;20.02;53.96;101757.88;4991888;28;96973;-69
2023/07/07 02:00:26;;;;;;;7.65;4.25;;;;;;;19.91;54.01;101755.81;4997338;28;96920;-69
2023/07/07 02:02:57;;;;;;;7.10;4.28;;;;;;;19.97;54.39;101760.81;4997990;28;101243;-69
2023/07/07 02:05:24;;;;;;;11.68;4.60;;;;;;;19.90;54.35;101764.81;4997055;28;98858;-69
2023/07/07 02:07:51;;;;;;;8.30;3.85;;;;;;;19.60;55.34;101767.47;4991932;28;96751;-69
2023/07/07 02:10:17;;;;;;;6.93;4.22;;;;;;;19.87;54.89;101773.06;4991760;28;98084;-69
2023/07/07 02:12:44;;;;;;;5.93;4.05;;;;;;;19.92;54.71;101773.66;4999194;28;98936;-69
2023/07/07 02:15:11;;;;;;;6.40;4.20;;;;;;;19.82;54.52;101769.78;4992124;28;99026;-69
2023/07/07 02:17:37;;;;;;;9.02;4.32;;;;;;;20.00;53.59;101766.03;4988867;28;97067;-70
2023/07/07 02:20:06;;;;;;;7.38;4.47;;;;;;;20.02;53.52;101768.63;4996936;28;97817;-69
2023/07/07 02:22:33;;;;;;;11.57;4.65;;;;;;;19.82;54.24;101767.94;4985321;28;98933;-70
2023/07/07 02:25:01;;;;;;;7.93;5.10;;;;;;;19.92;53.79;101768.28;5000316;28;96725;-69
2023/07/07 02:27:27;;;;;;;8.68;4.40;;;;;;;19.80;54.42;101767.19;4999084;28;97243;-69
2023/07/07 02:29:53;;;;;;;8.32;3.95;;;;;;;19.92;53.65;101772.78;4987544;28;97588;-69
2023/07/07 02:32:20;;;;;;;7.20;4.55;;;;;;;19.79;53.89;101770.81;4990442;28;98982;-69
2023/07/07 02:34:47;;;;;;;8.13;4.70;;;;;;;19.68;54.46;101778.63;4987892;28;98057;-69
2023/07/07 02:37:15;;;;;;;9.65;4.20;;;;;;;19.65;55.04;101780.59;4990350;28;97168;-69
2023/07/07 02:39:42;;;;;;;7.10;3.95;;;;;;;19.57;55.97;101782.84;4987843;28;96929;-69
2023/07/07 02:42:08;;;;;;;9.38;4.22;;;;;;;19.61;55.60;101785.28;4990891;28;99146;-69
2023/07/07 02:44:35;;;;;;;6.78;4.15;;;;;;;19.64;54.84;101778.84;4992072;28;98078;-69
2023/07/07 02:47:01;;;;;;;9.27;4.68;;;;;;;19.44;54.93;101778.13;4997222;28;96765;-69
2023/07/07 02:49:28;;;;;;;10.35;4.60;;;;;;;19.69;54.83;101782.16;4991222;28;96808;-69
2023/07/07 02:51:54;;;;;;;6.93;4.28;;;;;;;19.67;54.74;101784.94;4993058;28;98902;-69
2023/07/07 02:54:22;;;;;;;12.85;4.55;;;;;;;19.62;54.96;101780.78;5002059;28;99935;-69
2023/07/07 02:56:48;;;;;;;9.82;4.72;;;;;;;19.87;53.96;101781.97;4993037;28;97655;-69
2023/07/07 02:59:14;;;;;;;9.38;5.93;;;;;;;19.82;53.88;101778.66;4991659;28;97043;-69
2023/07/07 03:01:43;;;;;;;7.55;4.88;;;;;;;19.94;53.37;101778.94;4988992;28;97642;-70
2023/07/07 03:04:10;;;;;;;10.43;4.53;;;;;;;19.71;53.66;101782.91;4989387;28;99179;-70
2023/07/07 03:06:37;;;;;;;7.97;4.45;;;;;;;19.60;54.00;101788.91;4992694;28;97051;-69
2023/07/07 03:09:04;;;;;;;9.32;4.40;;;;;;;19.61;54.59;101776.38;4992623;28;97206;-70
2023/07/07 03:11:33;;;;;;;11.75;4.20;;;;;;;19.66;54.21;101779.66;4993657;28;97919;-70
2023/07/07 03:13:59;;;;;;;12.20;4.13;;;;;;;19.85;53.18;101789.22;4990815;28;99217;-68
2023/07/07 03:16:30;;;;;;;9.60;4.00;;;;;;;19.86;53.11;101784.72;4996889;28;96798;-69
2023/07/07 03:18:59;;;;;;;6.63;3.95;;;;;;;20.08;52.51;101787.91;4982318;28;96993;-71
2023/07/07 03:21:35;;;;;;;7.25;4.30;;;;;;;20.09;52.23;101786.06;4990750;28;97063;-70
2023/07/07 03:24:06;;;;;;;8.00;4.38;;;;;;;20.09;52.37;101789.59;4996186;28;97695;-70
2023/07/07 03:26:35;;;;;;;7.78;4.60;;;;;;;19.80;53.25;101790.44;4987294;28;96823;-71
2023/07/07 03:29:14;;;;;;;9.13;5.13;;;;;;;20.04;52.73;101790.84;4993414;28;96834;-71
2023/07/07 03:31:43;;;;;;;9.13;4.57;;;;;;;19.98;53.04;101789.38;4988182;28;97896;-70
2023/07/07 03:34:10;;;;;;;11.48;5.03;;;;;;;20.18;52.59;101788.22;4992214;28;97449;-70
2023/07/07 03:36:44;;;;;;;8.77;5.00;;;;;;;20.04;53.02;101789.03;5000677;28;96987;-72
2023/07/07 03:39:27;;;;;;;11.70;5.38;;;;;;;20.04;53.08;101788.16;4990928;27;97288;-70
2023/07/07 03:41:56;;;;;;;9.00;4.90;;;;;;;20.08;52.84;101787.03;4996476;28;99960;-70
2023/07/07 03:44:24;;;;;;;9.60;4.57;;;;;;;19.98;53.00;101789.38;4988833;28;99058;-70
2023/07/07 03:46:56;;;;;;;11.13;4.75;;;;;;;20.06;53.33;101791.63;4987700;28;96972;-71
2023/07/07 03:49:22;;;;;;;9.55;4.32;;;;;;;20.09;53.18;101797.66;4989986;28;96670;-69
2023/07/07 03:51:48;;;;;;;8.40;4.72;;;;;;;20.03;54.41;101803.38;4988444;28;102577;-69
2023/07/07 03:54:15;;;;;;;9.57;5.25;;;;;;;20.14;54.50;101800.97;4992643;28;98791;-68
2023/07/07 03:56:42;;;;;;;10.52;4.70;;;;;;;20.08;54.72;101798.63;4986206;28;98266;-69
2023/07/07 03:59:09;;;;;;;7.35;4.65;;;;;;;20.30;54.55;101801.75;4985690;28;98734;-69
2023/07/07 04:01:36;;;;;;;8.23;4.60;;;;;;;20.42;54.30;101794.81;4987229;28;99100;-69
2023/07/07 04:04:02;;;;;;;9.63;4.70;;;;;;;20.58;53.40;101801.00;4990438;28;99193;-69
2023/07/07 04:06:29;;;;;;;9.98;5.03;;;;;;;20.45;54.08;101810.75;5001737;28;97449;-68
2023/07/07 04:08:55;;;;;;;9.93;4.45;;;;;;;20.65;53.75;101809.56;4996760;28;96852;-69
2023/07/07 04:11:23;;;;;;;7.05;4.47;;;;;;;20.78;53.42;101807.84;4991200;28;98618;-70
2023/07/07 04:13:51;;;;;;;7.40;4.40;;;;;;;20.98;52.42;101810.19;4999153;28;98974;-70
2023/07/07 04:16:20;;;;;;;7.13;4.55;;;;;;;20.97;52.50;101816.50;4995699;28;96858;-63
2023/07/07 04:18:47;;;;;;;8.55;4.20;;;;;;;20.94;52.50;101808.63;4990767;28;96774;-64
2023/07/07 04:21:18;;;;;;;9.65;4.75;;;;;;;21.23;51.89;101820.28;4990844;28;98981;-69
2023/07/07 04:23:46;;;;;;;8.48;4.53;;;;;;;21.49;51.08;101818.63;4987318;28;98817;-69
2023/07/07 04:26:13;;;;;;;6.95;4.35;;;;;;;21.39;50.90;101821.06;4990192;28;97270;-70
2023/07/07 04:28:41;;;;;;;8.18;5.30;;;;;;;21.29;50.98;101827.09;4990003;28;96781;-70
2023/07/07 04:31:10;;;;;;;13.82;5.05;;;;;;;21.50;50.83;101816.78;4986713;28;102749;-70
2023/07/07 04:33:38;;;;;;;10.38;4.43;;;;;;;21.93;49.63;101825.59;4990821;28;98998;-70
2023/07/07 04:36:07;;;;;;;11.00;4.63;;;;;;;21.72;49.94;101823.41;4992212;28;96860;-69
2023/07/07 04:38:34;;;;;;;6.43;4.03;;;;;;;22.26;48.42;101834.16;4991449;28;97904;-69
2023/07/07 04:41:06;;;;;;;6.93;4.40;;;;;;;22.22;48.41;101838.03;4988504;28;99294;-69
2023/07/07 04:43:33;;;;;;;8.90;4.63;;;;;;;22.47;47.88;101834.56;4992530;28;98771;-69
2023/07/07 04:45:59;;;;;;;6.55;4.10;;;;;;;22.49;47.21;101846.09;4987402;28;97364;-69
2023/07/07 04:48:26;;;;;;;10.05;4.50;;;;;;;22.52;46.31;101837.78;4990350;28;96854;-69
2023/07/07 04:50:57;;;;;;;9.00;4.43;;;;;;;22.65;45.41;101847.63;4989066;28;99312;-69
2023/07/07 04:53:24;;;;;;;7.45;4.05;;;;;;;22.92;44.49;101844.00;4988844;28;99188;-70
2023/07/07 04:55:50;;;;;;;10.30;3.80;;;;;;;22.91;43.53;101850.38;4991221;28;96962;-69
2023/07/07 04:58:16;;;;;;;10.52;4.10;;;;;;;23.20;43.79;101849.19;4995259;28;96908;-70
2023/07/07 05:00:43;;;;;;;9.60;3.65;;;;;;;23.48;43.61;101850.81;4994948;28;97815;-69
2023/07/07 05:03:09;;;;;;;7.15;4.28;;;;;;;24.19;42.51;101844.66;4987255;28;98897;-69
2023/07/07 05:05:36;;;;;;;4.22;3.42;;;;;;;25.14;39.58;101849.88;4983412;28;96898;-69
2023/07/07 05:08:04;;;;;;;8.73;3.75;;;;;;;26.47;36.44;101847.94;4986808;28;96977;-69
2023/07/07 05:10:31;;;;;;;6.78;3.67;;;;;;;26.96;34.55;101845.50;4988717;28;100549;-69
2023/07/07 05:13:00;;;;;;;7.13;3.00;;;;;;;27.80;31.29;101850.72;4982601;28;98957;-71
2023/07/07 05:15:27;;;;;;;8.63;3.65;;;;;;;27.65;31.79;101847.53;4986809;28;97030;-69
2023/07/07 05:17:54;;;;;;;4.47;2.90;;;;;;;27.26;32.37;101850.06;4992150;28;96823;-69
2023/07/07 05:20:20;;;;;;;8.93;3.67;;;;;;;27.13;34.01;101854.00;4992005;28;99098;-70
2023/07/07 05:22:46;;;;;;;3.50;2.80;;;;;;;26.71;34.53;101851.28;5000249;28;98840;-69
2023/07/07 05:25:14;;;;;;;6.22;3.40;;;;;;;26.16;34.60;101860.50;4998902;28;96858;-70
2023/07/07 05:27:40;;;;;;;6.28;3.08;;;;;;;25.91;35.10;101849.97;4990668;28;97069;-68
2023/07/07 05:30:08;;;;;;;7.00;3.03;;;;;;;25.98;34.99;101851.19;4989114;28;99302;-69
2023/07/07 05:32:35;;;;;;;5.50;3.00;;;;;;;25.74;34.53;101846.81;4990874;28;101053;-69
2023/07/07 05:35:01;;;;;;;8.10;3.45;;;;;;;25.96;35.53;101850.47;4991131;28;96849;-69
2023/07/07 05:37:28;;;;;;;7.28;3.00;;;;;;;25.55;34.55;101851.97;4992379;28;96819;-69
2023/07/07 05:39:54;;;;;;;6.38;3.33;;;;;;;25.77;35.12;101845.69;4991744;28;98856;-69
2023/07/07 05:42:22;;;;;;;5.05;3.03;;;;;;;25.48;34.78;101863.41;4995370;28;98773;-70
2023/07/07 05:44:48;;;;;;;7.10;3.00;;;;;;;25.50;33.66;101859.59;4991148;28;97268;-70
2023/07/07 05:47:15;;;;;;;6.40;3.03;;;;;;;25.91;33.64;101858.97;4992228;28;96907;-70
2023/07/07 05:49:41;;;;;;;8.93;2.95;;;;;;;25.87;33.79;101862.03;4987247;28;100920;-70
2023/07/07 05:52:08;;;;;;;5.63;2.50;;;;;;;25.85;33.85;101864.03;4992194;28;98631;-69
2023/07/07 05:54:35;;;;;;;7.97;3.47;;;;;;;26.16;34.10;101872.19;4993028;28;96901;-69
2023/07/07 05:57:02;;;;;;;8.10;2.95;;;;;;;25.93;33.54;101866.97;4996333;28;96866;-69
2023/07/07 05:59:31;;;;;;;6.18;3.03;;;;;;;25.91;33.53;101871.66;4988517;28;99040;-70
2023/07/07 06:01:57;;;;;;;4.93;3.28;;;;;;;26.05;33.16;101877.66;4993457;28;98850;-69
2023/07/07 06:04:24;;;;;;;11.90;3.13;;;;;;;25.93;31.87;101873.22;4983968;28;96960;-68
2023/07/07 06:06:50;;;;;;;10.13;3.67;;;;;;;25.83;32.06;101882.25;4987444;28;96894;-69
2023/07/07 06:09:20;;;;;;;8.55;2.88;;;;;;;25.77;32.18;101879.06;5002504;28;98944;-70
2023/07/07 06:11:47;;;;;;;7.80;3.78;;;;;;;26.07;31.81;101877.50;4991325;28;99301;-69
2023/07/07 06:14:14;;;;;;;6.90;3.47;;;;;;;26.20;31.64;101883.63;4993114;28;96773;-69
2023/07/07 06:16:41;;;;;;;10.45;3.75;;;;;;;26.28;30.69;101883.00;4994386;28;96960;-69
2023/07/07 06:19:08;;;;;;;10.63;3.90;;;;;;;26.30;31.00;101884.63;4989489;28;99119;-68
2023/07/07 06:21:34;;;;;;;5.85;2.92;;;;;;;26.39;31.00;101889.25;4993811;28;99082;-69
2023/07/07 06:24:02;;;;;;;9.18;3.55;;;;;;;26.64;30.42;101889.91;4999053;28;97008;-69
2023/07/07 06:26:28;;;;;;;6.10;2.65;;;;;;;26.53;30.24;101888.94;4994718;28;96930;-69
2023/07/07 06:28:56;;;;;;;10.00;4.00;;;;;;;26.50;30.68;101897.34;4988395;28;99278;-69
2023/07/07 06:31:22;;;;;;;10.23;3.58;;;;;;;26.73;30.51;101903.50;4989489;28;97694;-69
2023/07/07 06:33:50;;;;;;;7.35;2.83;;;;;;;26.67;30.36;101900.47;4988115;28;97953;-69
2023/07/07 06:36:16;;;;;;;9.18;2.95;;;;;;;26.69;29.96;101899.34;4990816;28;96950;-70
2023/07/07 06:38:43;;;;;;;6.88;2.40;;;;;;;26.64;30.37;101904.31;4986257;28;99314;-70
2023/07/07 06:41:11;;;;;;;3.40;2.40;;;;;;;27.24;29.91;101891.91;4991456;28;98879;-69
2023/07/07 06:43:38;;;;;;;4.22;2.05;;;;;;;27.25;28.97;101899.03;4988938;28;96840;-68
2023/07/07 06:46:05;;;;;;;5.28;1.90;;;;;;;27.26;28.59;101898.91;4992512;28;97142;-70
2023/07/07 06:48:31;;;;;;;7.93;2.55;;;;;;;27.94;28.08;101900.09;4990119;28;99779;-69
2023/07/07 06:50:59;;;;;;;3.63;1.90;;;;;;;27.73;27.79;101899.28;4991619;28;99002;-69
2023/07/07 06:53:25;;;;;;;4.20;1.65;;;;;;;27.52;28.38;101901.19;4995248;28;96978;-69
2023/07/07 06:55:52;;;;;;;8.13;1.67;;;;;;;27.61;28.42;101897.69;4990039;28;96927;-69
2023/07/07 06:58:21;;;;;;;9.88;2.08;;;;;;;27.67;27.45;101894.41;4989397;28;100423;-68
2023/07/07 07:00:48;;;;;;;6.10;1.90;;;;;;;27.77;27.90;101901.59;4989367;28;97831;-68
2023/07/07 07:03:14;;;;;;;2.63;1.55;;;;;;;27.92;27.58;101901.22;4996972;28;96917;-69
2023/07/07 07:05:41;;;;;;;6.80;1.95;;;;;;;27.85;27.14;101903.63;5000314;28;96937;-68
2023/07/07 07:08:09;;;;;;;5.60;2.30;;;;;;;28.00;27.49;101912.25;4991350;28;99231;-67
2023/07/07 07:10:35;;;;;;;5.07;2.03;;;;;;;28.04;27.03;101906.38;4993738;28;98983;-68
2023/07/07 07:13:02;;;;;;;3.58;2.10;;;;;;;28.18;26.79;101907.00;4987480;28;96934;-68
2023/07/07 07:15:28;;;;;;;3.97;1.95;;;;;;;27.92;27.05;101910.22;4987756;28;97379;-68
2023/07/07 07:17:54;;;;;;;3.88;1.63;;;;;;;28.12;26.81;101898.41;4991108;28;98867;-68
2023/07/07 07:20:21;;;;;;;9.38;2.17;;;;;;;27.92;27.19;101902.06;4983964;28;99051;-70
2023/07/07 07:22:49;;;;;;;2.42;1.27;;;;;;;28.13;26.67;101901.97;4984487;28;96882;-69
2023/07/07 07:25:17;;;;;;;4.18;1.38;;;;;;;28.26;26.98;101899.88;4989455;28;96814;-69
2023/07/07 07:27:44;;;;;;;7.72;1.85;;;;;;;28.18;26.60;101898.84;4990582;28;99305;-69
2023/07/07 07:30:14;;;;;;;4.32;1.90;;;;;;;28.05;26.83;101890.94;4992198;28;98065;-70
2023/07/07 07:32:41;;;;;;;1.80;1.48;;;;;;;28.32;26.62;101901.16;4995658;28;97642;-69
2023/07/07 07:35:07;;;;;;;4.47;1.58;;;;;;;28.78;26.47;101889.59;4992603;28;96982;-69
2023/07/07 07:37:34;;;;;;;5.53;2.42;;;;;;;29.05;26.15;101891.56;4989085;28;99148;-69
2023/07/07 07:40:00;;;;;;;4.03;1.60;;;;;;;28.74;26.42;101893.59;4991178;28;99048;-70
2023/07/07 07:42:28;;;;;;;6.82;1.90;;;;;;;28.90;26.00;101891.16;4992366;28;97672;-69
2023/07/07 07:44:55;;;;;;;3.42;1.33;;;;;;;28.46;26.62;101893.47;4990502;28;96817;-69
2023/07/07 07:47:22;;;;;;;5.38;1.83;;;;;;;29.05;26.18;101894.28;4995896;28;100530;-69
2023/07/07 07:49:49;;;;;;;2.90;1.30;;;;;;;29.10;26.18;101894.69;4987181;28;98826;-70
2023/07/07 07:52:15;;;;;;;9.20;1.60;;;;;;;29.12;25.73;101895.44;4989020;28;96839;-69
2023/07/07 07:54:43;;;;;;;4.07;1.50;;;;;;;28.96;25.48;101895.16;4987915;28;96791;-69
2023/07/07 07:57:10;;;;;;;2.42;1.27;;;;;;;28.99;25.63;101900.31;4996394;28;100061;-69
2023/07/07 07:59:38;;;;;;;2.60;1.50;;;;;;;29.42;25.19;101900.66;4986038;28;98262;-69
2023/07/07 08:02:05;;;;;;;7.35;1.60;;;;;;;29.73;25.19;101897.66;4990086;28;97123;-69
2023/07/07 08:04:31;;;;;;;4.57;2.28;;;;;;;29.90;24.54;101905.03;4986752;28;97451;-69
2023/07/07 08:06:58;;;;;;;2.03;1.63;;;;;;;29.88;25.00;101902.44;4988313;28;99491;-68
2023/07/07 08:09:24;;;;;;;4.53;1.60;;;;;;;29.57;24.31;101906.47;4989521;28;100017;-70
2023/07/07 08:11:56;;;;;;;5.72;1.63;;;;;;;29.35;24.15;101904.97;4982491;28;97169;-69
2023/07/07 08:14:30;;;;;;;4.90;1.10;;;;;;;29.77;23.39;101908.09;4993088;28;98257;-69
2023/07/07 08:17:01;;;;;;;3.22;1.67;;;;;;;29.30;23.74;101909.97;4983491;28;99157;-68
2023/07/07 08:19:28;;;;;;;4.43;1.50;;;;;;;29.38;24.13;101907.41;4986947;28;99065;-69
2023/07/07 08:21:54;;;;;;;4.22;1.55;;;;;;;29.69;23.40;101906.13;4990047;28;97293;-69
2023/07/07 08:24:21;;;;;;;3.08;1.45;;;;;;;29.22;24.48;101905.28;4994121;28;97161;-69
2023/07/07 08:26:49;;;;;;;3.03;1.38;;;;;;;29.37;24.00;101911.13;4986093;28;98033;-69
2023/07/07 08:29:16;;;;;;;1.92;1.15;;;;;;;29.24;23.88;101910.56;4987260;28;98151;-68
2023/07/07 08:31:42;;;;;;;5.60;1.75;;;;;;;29.82;23.01;101907.66;4989508;28;98756;-69
2023/07/07 08:34:10;;;;;;;8.38;1.70;;;;;;;29.97;23.39;101903.44;4987500;28;97739;-70
2023/07/07 08:36:36;;;;;;;9.43;3.17;;;;;;;29.93;23.74;101907.50;4992301;28;98971;-69
2023/07/07 08:39:10;;;;;;;2.58;1.30;;;;;;;30.04;23.18;101904.53;4988199;28;99359;-69
2023/07/07 08:41:37;;;;;;;3.10;1.40;;;;;;;30.15;22.92;101898.00;4980654;28;97646;-69
2023/07/07 08:44:04;;;;;;;3.65;1.25;;;;;;;29.96;22.99;101909.91;4986176;28;97574;-69
2023/07/07 08:46:42;;;;;;;3.28;1.55;;;;;;;30.11;23.60;101900.19;4984444;28;98824;-69
2023/07/07 08:49:17;;;;;;;8.02;1.30;;;;;;;30.17;23.23;101899.59;4985772;28;98743;-69
2023/07/07 08:51:50;;;;;;;3.33;1.40;;;;;;;30.12;23.50;101912.81;4987634;28;97215;-69
2023/07/07 08:54:22;;;;;;;2.53;1.80;;;;;;;30.06;23.50;101897.09;4988960;28;97084;-69
2023/07/07 08:56:59;;;;;;;6.00;1.40;;;;;;;29.90;22.64;101913.19;4987987;28;99318;-69
2023/07/07 08:59:36;;;;;;;5.55;1.30;;;;;;;29.68;22.68;101912.59;4985345;28;99065;-70
2023/07/07 09:02:16;;;;;;;1.10;1.00;;;;;;;29.66;22.31;101905.59;4984597;28;96738;-70
2023/07/07 09:04:54;;;;;;;2.95;1.42;;;;;;;29.77;22.67;101899.06;4997932;28;97376;-69
2023/07/07 09:07:55;;;;;;;3.45;1.30;;;;;;;29.87;22.70;101902.59;4988049;28;99249;-69
2023/07/07 09:10:37;;;;;;;3.15;1.20;;;;;;;29.52;23.93;101898.75;4975087;28;98636;-69
2023/07/07 09:13:11;;;;;;;5.40;1.38;;;;;;;29.52;23.78;101903.34;4988508;28;97325;-69
2023/07/07 09:15:40;;;;;;;3.35;1.30;;;;;;;29.65;22.73;101901.16;4990012;28;98074;-69
2023/07/07 09:18:15;;;;;;;6.32;1.30;;;;;;;29.91;22.59;101906.75;4989320;28;98191;-69
2023/07/07 09:20:46;;;;;;;4.03;1.20;;;;;;;29.90;22.98;101903.16;4986337;28;101352;-69
2023/07/07 09:23:18;;;;;;;1.55;1.20;;;;;;;29.90;22.70;101902.31;4989932;28;96881;-69
2023/07/07 09:25:50;;;;;;;5.20;1.60;;;;;;;29.72;22.87;101899.53;4989452;28;97364;-69
2023/07/07 09:28:17;;;;;;;7.25;1.35;;;;;;;30.18;23.02;101900.44;4985135;28;98886;-70
2023/07/07 09:30:48;;;;;;;2.20;1.17;;;;;;;30.02;22.63;101901.09;4989464;28;97740;-68
2023/07/07 09:33:17;;;;;;;3.65;1.20;;;;;;;30.15;21.74;101900.75;4983333;28;97247;-69
2023/07/07 09:35:53;;;;;;;2.75;1.00;;;;;;;30.01;22.10;101902.97;4979544;28;97238;-70
2023/07/07 09:38:26;;;;;;;;;;;;;;;30.38;21.88;101902.88;4986274;28;99135;-69
2023/07/07 09:41:03;;;;;;;4.50;1.13;;;;;;;30.42;22.00;101895.22;4982795;28;98710;-69
2023/07/07 09:43:39;;;;;;;1.55;1.10;;;;;;;30.11;21.95;101892.03;4984122;28;97084;-69
2023/07/07 09:46:16;;;;;;;3.78;1.30;;;;;;;30.23;21.98;101892.66;4985435;28;98023;-69
2023/07/07 09:48:52;;;;;;;2.53;0.75;;;;;;;30.24;21.88;101891.66;4989004;28;99353;-70
2023/07/07 09:51:41;;;;;;;2.72;1.35;;;;;;;30.17;21.81;101894.13;4984605;28;100722;-69
2023/07/07 09:54:13;;;;;;;3.72;1.15;;;;;;;30.06;21.83;101883.47;4982674;28;97760;-70
2023/07/07 09:56:49;;;;;;;4.72;1.13;;;;;;;30.02;21.92;101891.06;4989869;28;97327;-69
2023/07/07 09:59:19;;;;;;;3.75;1.40;;;;;;;30.30;21.87;101886.44;4985463;28;101936;-69
2023/07/07 10:01:50;;;;;;;1.67;1.20;;;;;;;30.18;22.40;101884.09;4983296;28;99309;-69
2023/07/07 10:04:19;;;;;;;3.20;1.10;;;;;;;30.13;21.66;101879.06;4985225;28;96813;-69
2023/07/07 10:06:53;;;;;;;1.95;1.20;;;;;;;30.27;21.66;101884.00;4988298;28;96887;-69
2023/07/07 10:09:20;;;;;;;1.50;1.20;;;;;;;30.25;22.34;101877.88;4997642;28;99096;-70
2023/07/07 10:11:47;;;;;;;1.45;1.00;;;;;;;30.10;21.75;101873.94;4985301;28;99307;-68
2023/07/07 10:14:16;;;;;;;3.72;1.30;;;;;;;30.06;22.16;101873.38;4987299;28;97551;-63
2023/07/07 10:16:55;;;;;;;1.30;1.10;;;;;;;29.59;22.44;101879.97;4987432;28;97035;-63
2023/07/07 10:19:23;;;;;;;2.50;1.20;;;;;;;29.69;22.07;101878.91;4991105;28;102724;-64
2023/07/07 10:21:52;;;;;;;1.58;1.20;;;;;;;29.86;21.75;101873.66;4986924;28;98988;-65
2023/07/07 10:24:19;;;;;;;4.45;1.67;;;;;;;29.51;22.79;101875.25;4990991;28;97159;-64
2023/07/07 10:26:47;;;;;;;2.88;1.67;;;;;;;29.54;22.57;101874.94;4986100;28;97577;-64
2023/07/07 10:29:17;;;;;;;2.40;1.52;;;;;;;29.47;22.05;101876.53;4996120;28;97916;-65
2023/07/07 10:31:46;;;;;;;2.25;1.02;;;;;;;29.53;21.56;101875.97;4984377;28;98017;-64
2023/07/07 10:34:24;;;;;;;1.45;1.15;;;;;;;29.92;21.20;101867.63;4990925;28;97238;-64
2023/07/07 10:36:54;;;;;;;3.95;1.10;;;;;;;30.04;21.43;101869.13;4987980;28;96785;-64
2023/07/07 10:39:23;;;;;;;1.40;1.02;;;;;;;30.15;21.65;101873.47;4993037;28;100375;-64
2023/07/07 10:41:49;;;;;;;2.38;1.20;;;;;;;30.13;22.04;101864.63;4989074;28;101475;-64
2023/07/07 10:44:16;;;;;;;1.00;0.90;;;;;;;30.18;21.58;101863.16;4986449;28;97281;-64
2023/07/07 10:46:42;;;;;;;1.75;1.00;;;;;;;29.96;21.88;101860.84;4983243;28;96839;-64
2023/07/07 10:49:14;;;;;;;1.98;1.10;;;;;;;29.98;21.93;101859.69;4984717;28;99293;-63
2023/07/07 10:51:49;;;;;;;1.85;1.10;;;;;;;29.90;21.82;101851.38;4979595;28;100334;-64
2023/07/07 10:54:24;;;;;;;2.25;1.33;;;;;;;30.35;22.04;101851.38;4987548;28;97392;-64
2023/07/07 10:56:57;;;;;;;1.40;1.30;;;;;;;30.42;22.03;101852.47;4990351;28;97809;-62
2023/07/07 10:59:43;;;;;;;1.52;1.15;;;;;;;30.09;22.27;101853.16;4995503;28;99895;-63
2023/07/07 11:02:49;;;;;;;3.30;1.13;;;;;;;30.35;22.64;101854.09;4982198;28;98829;-64
2023/07/07 11:05:29;;;;;;;3.78;1.45;;;;;;;30.29;22.95;101860.19;4904645;28;97249;-64
2023/07/07 11:08:04;;;;;;;2.22;1.20;;;;;;;30.21;22.05;101862.81;4908076;28;96949;-64
2023/07/07 11:10:55;;;;;;;2.97;1.37;;;;;;;30.07;22.39;101861.47;4958933;28;99044;-64
2023/07/07 11:13:31;;;;;;;2.25;1.35;;;;;;;30.05;22.00;101851.75;4990700;28;99232;-63
2023/07/07 11:16:08;;;;;;;1.45;1.23;;;;;;;30.15;22.54;101847.09;4985512;28;96789;-64
2023/07/07 11:18:55;;;;;;;3.00;1.25;;;;;;;30.17;23.04;101846.94;4983280;28;97762;-64
2023/07/07 11:21:33;;;;;;;4.63;1.48;;;;;;;30.09;22.98;101850.44;4989107;28;99297;-64
2023/07/07 11:24:12;;;;;;;3.38;1.20;;;;;;;30.05;22.48;101844.44;4984707;28;98700;-64
2023/07/07 11:26:55;;;;;;;3.10;1.40;;;;;;;29.91;22.20;101844.06;4989201;28;96824;-64
2023/07/07 11:29:31;;;;;;;3.22;1.20;;;;;;;29.99;22.36;101842.34;4983564;28;96891;-64
2023/07/07 11:32:10;;;;;;;1.63;1.13;;;;;;;30.24;22.20;101842.56;4984483;28;99392;-63
2023/07/07 11:34:59;;;;;;;2.63;1.67;;;;;;;30.39;21.86;101841.84;4990080;28;99557;-63
2023/07/07 11:37:39;;;;;;;3.15;1.65;;;;;;;30.30;22.18;101841.94;4988717;28;97381;-63